Time;durP1;ratioP1;P1;durP2;ratioP2;P2;SDS_P1;SDS_P2;PMS_P1;PMS_P2;Temp;Humidity;BMP_temperature;BMP_pressure;BME280_temperature;BME280_humidity;BME280_pressure;Samples;Min_cycle;Max_cycle;Signal;HPM_P1;HPM_P2
2021/11/29 00:00:11;;;;;;;6.22;2.92;;;;;;;-2.08;82.47;99469.31;5083684;28;20429;-71
2021/11/29 00:02:37;;;;;;;5.70;2.08;;;;;;;-2.12;82.45;99462.41;5083353;28;20105;-71
2021/11/29 00:05:03;;;;;;;2.85;1.92;;;;;;;-2.13;82.27;99475.94;5083008;28;20033;-71
2021/11/29 00:07:29;;;;;;;2.90;1.95;;;;;;;-2.13;82.36;99470.88;5083150;28;20025;-71
2021/11/29 00:09:54;;;;;;;3.40;2.05;;;;;;;-2.18;82.41;99474.94;5083146;28;20094;-71
2021/11/29 00:12:19;;;;;;;2.83;1.90;;;;;;;-2.21;82.40;99469.78;5083428;28;20032;-73
2021/11/29 00:14:45;;;;;;;7.00;2.55;;;;;;;-2.29;82.55;99477.19;5081939;28;20492;-71
2021/11/29 00:17:10;;;;;;;7.47;2.97;;;;;;;-2.27;82.58;99465.41;5083106;28;20023;-71
2021/11/29 00:19:35;;;;;;;3.80;2.35;;;;;;;-2.31;82.50;99459.34;5081425;28;20021;-71
2021/11/29 00:22:01;;;;;;;4.43;2.50;;;;;;;-2.41;82.27;99459.91;5082879;28;20037;-71
2021/11/29 00:24:26;;;;;;;2.83;1.88;;;;;;;-2.33;82.29;99473.69;5082847;28;20076;-71
2021/11/29 00:26:52;;;;;;;2.08;1.65;;;;;;;-2.22;81.91;99471.44;5083182;28;20020;-72
2021/11/29 00:29:17;;;;;;;2.10;1.60;;;;;;;-2.35;81.58;99465.19;5082579;28;20024;-72
2021/11/29 00:31:42;;;;;;;2.65;1.92;;;;;;;-2.41;81.95;99478.56;5085294;28;20407;-73
2021/11/29 00:34:09;;;;;;;4.88;2.85;;;;;;;-2.41;82.27;99487.88;5086355;28;20040;-72
2021/11/29 00:36:34;;;;;;;4.28;2.50;;;;;;;-2.48;82.37;99486.84;5086634;28;20020;-73
2021/11/29 00:39:00;;;;;;;4.57;1.95;;;;;;;-2.51;82.51;99485.03;5086190;28;20031;-72
2021/11/29 00:41:25;;;;;;;3.58;2.05;;;;;;;-2.56;82.67;99484.06;5085012;28;20019;-72
2021/11/29 00:43:50;;;;;;;3.60;2.30;;;;;;;-2.54;82.68;99490.03;5085186;28;20094;-72
2021/11/29 00:46:16;;;;;;;5.32;1.88;;;;;;;-2.56;82.57;99488.28;5086305;28;20024;-73
2021/11/29 00:48:41;;;;;;;5.43;2.50;;;;;;;-2.59;82.66;99491.59;5086304;28;20042;-73
2021/11/29 00:51:06;;;;;;;5.13;2.65;;;;;;;-2.60;82.78;99489.84;5086163;28;20032;-73
2021/11/29 00:53:32;;;;;;;4.25;2.03;;;;;;;-2.67;82.73;99485.41;5086222;28;20031;-71
2021/11/29 00:55:57;;;;;;;5.80;2.70;;;;;;;-2.63;82.74;99500.81;5086076;28;20468;-71
2021/11/29 00:58:23;;;;;;;5.25;2.85;;;;;;;-2.65;82.70;99499.88;5084733;28;20016;-71
2021/11/29 01:00:48;;;;;;;6.65;3.38;;;;;;;-2.75;82.96;99505.50;5085940;28;20460;-71
2021/11/29 01:03:13;;;;;;;6.88;3.25;;;;;;;-2.73;82.95;99501.31;5085713;28;20025;-71
2021/11/29 01:05:39;;;;;;;8.82;3.05;;;;;;;-2.75;82.80;99513.97;5085986;28;20040;-71
2021/11/29 01:08:05;;;;;;;5.85;3.25;;;;;;;-2.79;82.96;99506.22;5085851;28;20033;-71
2021/11/29 01:10:31;;;;;;;6.07;2.47;;;;;;;-2.85;83.08;99511.97;5085872;28;20032;-71
2021/11/29 01:12:58;;;;;;;5.05;2.58;;;;;;;-2.83;82.97;99520.53;5085504;28;20075;-71
2021/11/29 01:15:30;;;;;;;5.80;3.10;;;;;;;-2.86;82.72;99518.72;5085835;28;20024;-71
2021/11/29 01:17:55;;;;;;;2.17;1.55;;;;;;;-2.90;83.16;99521.13;5085844;28;20032;-71
2021/11/29 01:20:21;;;;;;;3.65;2.50;;;;;;;-2.94;82.91;99516.75;5085495;28;20028;-71
2021/11/29 01:22:46;;;;;;;2.47;2.05;;;;;;;-2.95;83.00;99512.47;5085327;28;20052;-71
2021/11/29 01:25:13;;;;;;;4.72;2.95;;;;;;;-2.93;83.11;99528.63;5085622;28;20023;-71
2021/11/29 01:27:39;;;;;;;4.97;3.00;;;;;;;-2.94;82.96;99529.47;5084031;28;20047;-70
2021/11/29 01:30:07;;;;;;;4.30;2.53;;;;;;;-3.00;83.03;99523.38;5084222;28;20123;-72
2021/11/29 01:32:33;;;;;;;7.05;2.63;;;;;;;-2.98;82.98;99525.97;5085328;28;20020;-71
2021/11/29 01:34:59;;;;;;;2.90;2.05;;;;;;;-3.11;83.12;99510.31;5084110;28;20034;-71
2021/11/29 01:37:24;;;;;;;3.50;2.47;;;;;;;-3.09;82.94;99514.56;5085319;28;20492;-70
2021/11/29 01:39:50;;;;;;;3.38;2.30;;;;;;;-3.10;82.99;99516.28;5085087;28;20035;-71
2021/11/29 01:42:15;;;;;;;5.53;3.17;;;;;;;-3.14;83.03;99532.22;5085014;28;20024;-71
2021/11/29 01:44:41;;;;;;;6.72;3.13;;;;;;;-3.12;83.16;99533.13;5083591;28;20059;-71
2021/11/29 01:47:06;;;;;;;5.32;3.42;;;;;;;-3.14;83.14;99535.63;5085160;28;20025;-71
2021/11/29 01:49:32;;;;;;;5.32;2.72;;;;;;;-3.18;83.27;99527.84;5084696;28;20440;-71
2021/11/29 01:51:58;;;;;;;8.38;2.63;;;;;;;-3.21;83.27;99535.38;5083519;28;20087;-71
2021/11/29 01:54:25;;;;;;;5.78;3.20;;;;;;;-3.30;83.21;99524.09;5084614;28;20381;-71
2021/11/29 01:56:50;;;;;;;5.93;3.45;;;;;;;-3.22;83.09;99533.63;5084889;28;20028;-72
2021/11/29 01:59:15;;;;;;;6.43;3.00;;;;;;;-3.21;83.21;99535.38;5084850;28;20028;-71
2021/11/29 02:01:41;;;;;;;3.88;2.58;;;;;;;-3.25;83.15;99535.25;5083267;28;20020;-70
2021/11/29 02:04:11;;;;;;;4.82;2.60;;;;;;;-3.30;83.26;99538.44;5082974;28;20025;-71
2021/11/29 02:06:37;;;;;;;4.25;2.42;;;;;;;-3.30;83.33;99546.94;5084617;28;20123;-71
2021/11/29 02:09:04;;;;;;;6.63;3.10;;;;;;;-3.31;83.37;99550.28;5084512;28;20017;-71
2021/11/29 02:11:30;;;;;;;6.28;2.85;;;;;;;-3.39;83.34;99539.00;5084740;28;20032;-70
2021/11/29 02:13:59;;;;;;;5.40;3.33;;;;;;;-3.34;83.56;99557.81;5084383;28;20060;-70
2021/11/29 02:16:25;;;;;;;5.63;2.40;;;;;;;-3.32;83.39;99550.25;5084434;28;20067;-70
2021/11/29 02:18:51;;;;;;;5.57;2.70;;;;;;;-3.38;83.51;99551.75;5084069;28;20464;-71
2021/11/29 02:21:19;;;;;;;6.05;3.53;;;;;;;-3.34;83.43;99560.34;5082898;28;20055;-71
2021/11/29 02:23:50;;;;;;;4.30;2.63;;;;;;;-3.41;83.48;99551.66;5084349;28;20025;-71
2021/11/29 02:26:18;;;;;;;6.85;2.85;;;;;;;-3.43;83.52;99555.78;5083114;28;20028;-71
2021/11/29 02:28:47;;;;;;;6.80;3.25;;;;;;;-3.47;83.49;99545.50;5084139;28;20024;-71
2021/11/29 02:31:15;;;;;;;4.40;2.33;;;;;;;-3.44;83.42;99553.22;5084378;28;20020;-70
2021/11/29 02:33:41;;;;;;;3.38;2.33;;;;;;;-3.46;83.60;99554.81;5083835;28;20047;-71
2021/11/29 02:36:06;;;;;;;9.68;2.22;;;;;;;-3.41;83.21;99564.34;5084027;28;20029;-71
2021/11/29 02:38:32;;;;;;;4.25;3.20;;;;;;;-3.53;83.44;99558.84;5083844;28;20456;-71
2021/11/29 02:40:58;;;;;;;4.07;3.30;;;;;;;-3.57;83.49;99564.59;5084225;28;20041;-72
2021/11/29 02:43:24;;;;;;;3.05;1.63;;;;;;;-3.58;83.31;99551.06;5083702;28;20032;-69
2021/11/29 02:45:49;;;;;;;3.40;2.75;;;;;;;-3.54;83.31;99568.13;5083887;28;20026;-71
2021/11/29 02:48:15;;;;;;;5.85;2.70;;;;;;;-3.66;83.35;99552.47;5082505;28;20361;-69
2021/11/29 02:50:40;;;;;;;5.00;3.03;;;;;;;-3.64;83.44;99569.47;5083702;28;20072;-70
2021/11/29 02:53:13;;;;;;;2.80;2.25;;;;;;;-3.63;83.46;99572.88;5083405;28;20033;-70
2021/11/29 02:55:38;;;;;;;4.25;2.70;;;;;;;-3.68;83.54;99564.22;5083836;28;20021;-70
2021/11/29 02:58:07;;;;;;;5.55;2.90;;;;;;;-3.67;83.49;99571.00;5083645;28;20332;-70
2021/11/29 03:00:34;;;;;;;8.15;3.45;;;;;;;-3.68;83.57;99572.72;5083911;28;20024;-71
2021/11/29 03:03:09;;;;;;;8.23;4.53;;;;;;;-3.64;83.44;99566.03;5083533;28;20051;-70
2021/11/29 03:05:34;;;;;;;5.72;2.63;;;;;;;-3.68;83.50;99560.03;5082151;28;20020;-70
2021/11/29 03:08:00;;;;;;;2.92;1.73;;;;;;;-3.77;83.50;99552.94;5083479;28;20062;-70
2021/11/29 03:10:26;;;;;;;3.70;2.45;;;;;;;-3.74;83.35;99563.19;5083490;28;20052;-71
2021/11/29 03:12:52;;;;;;;4.00;2.75;;;;;;;-3.76;83.26;99577.50;5083402;28;20042;-70
2021/11/29 03:15:17;;;;;;;3.75;2.40;;;;;;;-3.82;83.19;99569.69;5083597;28;20025;-70
2021/11/29 03:17:43;;;;;;;2.70;2.05;;;;;;;-3.80;83.22;99562.97;5082278;28;20017;-72
2021/11/29 03:20:12;;;;;;;3.67;2.75;;;;;;;-3.96;82.97;99551.41;5083441;28;20075;-70
2021/11/29 03:22:38;;;;;;;2.15;1.63;;;;;;;-3.93;82.99;99564.19;5081880;28;20131;-70
2021/11/29 03:25:05;;;;;;;6.43;2.13;;;;;;;-3.99;82.69;99562.31;5082317;28;20131;-71
2021/11/29 03:27:30;;;;;;;5.45;3.28;;;;;;;-4.08;82.71;99568.69;5082306;28;20123;-71
2021/11/29 03:29:56;;;;;;;3.63;2.20;;;;;;;-4.14;82.79;99575.25;5083610;28;20021;-71
2021/11/29 03:32:22;;;;;;;5.35;1.83;;;;;;;-4.21;82.70;99577.50;5083506;28;20074;-71
2021/11/29 03:34:49;;;;;;;3.53;2.13;;;;;;;-4.30;82.64;99578.91;5083301;28;20028;-71
2021/11/29 03:37:17;;;;;;;5.00;2.08;;;;;;;-4.34;82.76;99592.25;5081940;28;20032;-70
2021/11/29 03:39:43;;;;;;;2.90;2.17;;;;;;;-4.42;82.49;99594.47;5083230;28;20029;-71
2021/11/29 03:42:09;;;;;;;2.75;2.15;;;;;;;-4.52;82.73;99585.66;5083249;28;20020;-70
2021/11/29 03:44:35;;;;;;;4.75;2.70;;;;;;;-4.56;82.70;99590.53;5083197;28;20244;-71
2021/11/29 03:47:01;;;;;;;8.15;2.78;;;;;;;-4.61;82.53;99593.75;5083073;28;20032;-71
2021/11/29 03:49:26;;;;;;;1.95;1.65;;;;;;;-4.70;82.55;99587.47;5083020;28;20081;-70
2021/11/29 03:51:52;;;;;;;2.42;1.70;;;;;;;-4.76;82.42;99588.09;5083433;28;20028;-71
2021/11/29 03:54:18;;;;;;;2.10;1.80;;;;;;;-4.83;82.40;99596.22;5083071;28;20035;-71
2021/11/29 03:56:44;;;;;;;5.72;2.35;;;;;;;-4.92;82.35;99594.19;5083142;28;20028;-71
2021/11/29 03:59:10;;;;;;;1.98;1.50;;;;;;;-4.94;82.46;99600.84;5083200;28;20055;-71
2021/11/29 04:01:35;;;;;;;5.72;2.80;;;;;;;-5.00;82.36;99602.31;5083124;28;20027;-71
2021/11/29 04:04:02;;;;;;;4.47;2.20;;;;;;;-5.11;82.10;99591.75;5083238;28;20426;-71
2021/11/29 04:06:27;;;;;;;1.75;1.33;;;;;;;-5.12;82.42;99604.34;5087342;28;20020;-71
2021/11/29 04:08:52;;;;;;;3.92;2.38;;;;;;;-5.14;82.29;99600.88;5086503;28;20025;-71
2021/11/29 04:11:19;;;;;;;2.60;1.55;;;;;;;-5.22;82.47;99595.50;5086896;28;20021;-71
2021/11/29 04:13:45;;;;;;;5.13;1.70;;;;;;;-5.16;82.28;99612.63;5085336;28;20020;-71
2021/11/29 04:16:13;;;;;;;1.98;1.55;;;;;;;-5.23;82.17;99614.91;5086891;28;20078;-71
2021/11/29 04:18:41;;;;;;;2.17;1.38;;;;;;;-5.25;82.35;99613.06;5086796;28;20024;-71
2021/11/29 04:21:06;;;;;;;3.65;1.52;;;;;;;-5.29;82.31;99609.56;5086346;28;20032;-71
2021/11/29 04:23:32;;;;;;;1.85;1.48;;;;;;;-5.29;82.47;99603.63;5086426;28;20045;-71
2021/11/29 04:26:00;;;;;;;1.50;1.40;;;;;;;-5.31;82.50;99602.69;5086743;28;20036;-70
2021/11/29 04:28:26;;;;;;;5.78;2.65;;;;;;;-5.39;82.42;99594.78;5086708;28;20048;-71
2021/11/29 04:30:52;;;;;;;2.13;1.70;;;;;;;-5.35;82.45;99606.75;5086803;28;20016;-70
2021/11/29 04:33:18;;;;;;;1.92;1.58;;;;;;;-5.35;82.44;99611.81;5086361;28;20024;-71
2021/11/29 04:35:43;;;;;;;4.03;1.90;;;;;;;-5.42;82.44;99599.72;5086178;28;20028;-71
2021/11/29 04:38:08;;;;;;;4.65;2.05;;;;;;;-5.37;82.34;99614.28;5086499;28;20035;-71
2021/11/29 04:40:34;;;;;;;3.92;2.25;;;;;;;-5.37;82.27;99621.03;5086242;28;20028;-71
2021/11/29 04:43:00;;;;;;;2.63;1.70;;;;;;;-5.39;82.55;99625.13;5086399;28;20028;-71
2021/11/29 04:45:25;;;;;;;1.75;1.00;;;;;;;-5.42;82.52;99636.00;5086370;28;20111;-71
2021/11/29 04:47:51;;;;;;;3.38;1.90;;;;;;;-5.40;82.61;99631.00;5084981;28;20111;-70
2021/11/29 04:50:16;;;;;;;2.75;1.73;;;;;;;-5.39;82.57;99630.19;5085798;28;20383;-71
2021/11/29 04:52:42;;;;;;;2.67;1.50;;;;;;;-5.44;82.60;99629.13;5086186;28;20028;-70
2021/11/29 04:55:09;;;;;;;4.10;2.22;;;;;;;-5.43;82.73;99633.41;5084866;28;20051;-71
2021/11/29 04:57:34;;;;;;;1.98;1.60;;;;;;;-5.45;82.69;99635.00;5086332;28;20094;-71
2021/11/29 05:00:00;;;;;;;2.15;1.65;;;;;;;-5.46;82.73;99639.19;5086132;28;20456;-72
2021/11/29 05:02:25;;;;;;;2.85;1.55;;;;;;;-5.52;82.95;99633.84;5085631;28;20035;-70
2021/11/29 05:04:51;;;;;;;5.18;2.05;;;;;;;-5.44;82.73;99647.72;5085617;28;20185;-69
2021/11/29 05:07:16;;;;;;;4.35;2.05;;;;;;;-5.48;82.93;99646.69;5085534;28;20025;-70
2021/11/29 05:09:43;;;;;;;3.60;1.58;;;;;;;-5.47;82.80;99645.94;5085615;28;20332;-71
2021/11/29 05:12:10;;;;;;;3.63;2.15;;;;;;;-5.50;83.03;99653.38;5085603;28;20051;-70
2021/11/29 05:14:35;;;;;;;2.83;1.73;;;;;;;-5.47;82.91;99650.97;5085333;28;20016;-69
2021/11/29 05:17:01;;;;;;;3.65;1.73;;;;;;;-5.45;82.93;99651.06;5085358;28;20048;-70
2021/11/29 05:19:26;;;;;;;3.70;2.47;;;;;;;-5.44;82.81;99662.00;5083783;28;20025;-70
2021/11/29 05:21:51;;;;;;;5.18;2.58;;;;;;;-5.47;83.12;99667.81;5085279;28;20071;-71
2021/11/29 05:24:17;;;;;;;3.15;2.05;;;;;;;-5.52;83.10;99660.03;5085275;28;20035;-70
2021/11/29 05:26:42;;;;;;;4.45;1.98;;;;;;;-5.49;83.30;99671.94;5085387;28;20084;-69
2021/11/29 05:29:08;;;;;;;3.65;2.05;;;;;;;-5.47;82.83;99658.56;5085317;28;20020;-74
2021/11/29 05:31:33;;;;;;;2.38;1.67;;;;;;;-5.49;83.01;99662.69;5085161;28;20491;-73
2021/11/29 05:34:01;;;;;;;6.70;2.42;;;;;;;-5.49;83.40;99675.34;5084949;28;20365;-72
2021/11/29 05:36:27;;;;;;;4.00;1.92;;;;;;;-5.47;83.09;99673.75;5085310;28;20027;-73
2021/11/29 05:38:52;;;;;;;3.70;2.10;;;;;;;-5.56;83.30;99662.34;5084872;28;20020;-73
2021/11/29 05:41:18;;;;;;;2.67;1.30;;;;;;;-5.48;82.79;99676.22;5085475;28;20024;-71
2021/11/29 05:43:43;;;;;;;2.67;1.80;;;;;;;-5.55;83.16;99664.94;5083370;28;20081;-71
2021/11/29 05:46:09;;;;;;;2.88;1.85;;;;;;;-5.52;83.20;99680.25;5085134;28;20332;-72
2021/11/29 05:48:34;;;;;;;4.40;1.63;;;;;;;-5.51;83.07;99687.03;5084876;28;20282;-71
2021/11/29 05:51:00;;;;;;;3.25;2.10;;;;;;;-5.55;83.27;99682.66;5084972;28;20050;-71
2021/11/29 05:53:26;;;;;;;1.77;1.45;;;;;;;-5.52;83.18;99690.38;5083632;28;20031;-71
2021/11/29 05:55:51;;;;;;;4.38;2.67;;;;;;;-5.63;83.14;99668.78;5084934;28;20036;-71
2021/11/29 05:58:17;;;;;;;4.45;2.05;;;;;;;-5.55;83.12;99679.25;5084711;28;20079;-72
2021/11/29 06:00:42;;;;;;;3.55;2.50;;;;;;;-5.58;83.01;99680.00;5084782;28;20158;-72
2021/11/29 06:03:07;;;;;;;3.65;2.20;;;;;;;-5.59;83.16;99673.19;5084667;28;20052;-72
2021/11/29 06:05:33;;;;;;;2.50;1.77;;;;;;;-5.60;82.97;99672.34;5084316;28;20549;-72
2021/11/29 06:07:58;;;;;;;7.57;3.28;;;;;;;-5.54;82.88;99694.50;5084577;28;20024;-71
2021/11/29 06:10:24;;;;;;;1.85;1.50;;;;;;;-5.59;83.06;99701.00;5084355;28;20050;-71
2021/11/29 06:12:49;;;;;;;5.22;3.00;;;;;;;-5.66;82.94;99687.22;5084623;28;20081;-74
2021/11/29 06:15:16;;;;;;;3.38;1.70;;;;;;;-5.57;82.86;99703.63;5084056;28;20024;-73
2021/11/29 06:17:42;;;;;;;3.80;2.35;;;;;;;-5.68;82.96;99693.88;5082817;28;20021;-73
2021/11/29 06:20:08;;;;;;;3.75;2.33;;;;;;;-5.61;82.86;99705.16;5083809;28;20555;-73
2021/11/29 06:22:34;;;;;;;1.70;1.45;;;;;;;-5.69;82.80;99701.38;5084052;28;20100;-73
2021/11/29 06:24:59;;;;;;;3.25;2.15;;;;;;;-5.75;83.10;99707.88;5083885;28;20035;-73
2021/11/29 06:27:25;;;;;;;7.35;1.92;;;;;;;-5.70;82.87;99699.66;5083439;28;20028;-73
2021/11/29 06:29:53;;;;;;;5.40;2.90;;;;;;;-5.78;82.90;99697.63;5082442;28;20031;-73
2021/11/29 06:32:19;;;;;;;3.53;2.03;;;;;;;-5.77;83.04;99709.50;5083858;28;20372;-73
2021/11/29 06:34:45;;;;;;;3.03;1.92;;;;;;;-5.86;83.03;99684.63;5084156;28;20024;-74
2021/11/29 06:37:11;;;;;;;3.70;2.58;;;;;;;-5.76;82.84;99698.59;5084342;28;20029;-72
2021/11/29 06:39:40;;;;;;;4.22;2.10;;;;;;;-5.82;83.18;99710.06;5084030;28;20024;-74
2021/11/29 06:42:07;;;;;;;4.55;2.63;;;;;;;-5.81;83.00;99699.19;5082967;28;20033;-74
2021/11/29 06:44:33;;;;;;;5.25;3.22;;;;;;;-5.85;83.08;99711.66;5082546;28;20028;-74
2021/11/29 06:46:59;;;;;;;3.83;3.42;;;;;;;-5.87;83.23;99712.38;5084158;28;20017;-73
2021/11/29 06:49:24;;;;;;;8.13;3.45;;;;;;;-5.90;83.30;99699.59;5083712;28;20043;-74
2021/11/29 06:51:50;;;;;;;4.82;2.75;;;;;;;-5.92;83.15;99702.06;5084047;28;20025;-74
2021/11/29 06:54:16;;;;;;;4.50;2.60;;;;;;;-5.95;83.26;99701.03;5083932;28;20048;-74
2021/11/29 06:56:41;;;;;;;4.05;1.95;;;;;;;-5.89;82.99;99713.97;5084132;28;20029;-74
2021/11/29 06:59:07;;;;;;;8.15;3.25;;;;;;;-5.89;83.16;99724.06;5083933;28;20052;-72
2021/11/29 07:01:35;;;;;;;5.18;3.17;;;;;;;-5.99;83.11;99703.41;5083930;28;20027;-73
2021/11/29 07:04:01;;;;;;;10.82;2.63;;;;;;;-5.91;83.07;99713.88;5082275;28;20127;-73
2021/11/29 07:06:27;;;;;;;4.35;3.00;;;;;;;-5.91;83.14;99720.63;5083709;28;20472;-72
2021/11/29 07:08:53;;;;;;;5.05;1.77;;;;;;;-5.93;83.39;99722.22;5083599;28;20027;-73
2021/11/29 07:11:18;;;;;;;3.35;1.80;;;;;;;-5.98;83.33;99715.28;5083590;28;20024;-72
2021/11/29 07:13:44;;;;;;;3.40;2.80;;;;;;;-5.95;83.22;99723.78;5082023;28;20027;-72
2021/11/29 07:16:09;;;;;;;5.03;2.97;;;;;;;-5.93;83.19;99724.75;5083479;28;20100;-72
2021/11/29 07:18:35;;;;;;;6.35;3.65;;;;;;;-5.98;83.38;99724.53;5083281;28;20024;-72
2021/11/29 07:21:00;;;;;;;6.05;2.78;;;;;;;-6.03;83.17;99720.91;5083146;28;20029;-73
2021/11/29 07:23:28;;;;;;;4.25;2.55;;;;;;;-6.01;83.29;99730.31;5081312;28;20040;-72
2021/11/29 07:25:54;;;;;;;4.05;2.25;;;;;;;-6.01;83.00;99729.44;5083262;28;20422;-72
2021/11/29 07:28:19;;;;;;;5.88;3.28;;;;;;;-5.98;83.32;99735.50;5088600;23;20238;-72
2021/11/29 07:30:45;;;;;;;5.32;2.75;;;;;;;-6.13;83.23;99714.56;5043375;28;20029;-72
2021/11/29 07:33:10;;;;;;;5.35;3.15;;;;;;;-5.99;83.20;99733.75;5043202;28;20049;-71
2021/11/29 07:35:36;;;;;;;5.85;2.65;;;;;;;-6.10;83.14;99733.28;5041370;28;20030;-70
2021/11/29 07:38:01;;;;;;;6.00;3.05;;;;;;;-6.20;83.14;99713.44;5042416;28;20021;-72
2021/11/29 07:40:31;;;;;;;1.83;1.52;;;;;;;-6.01;83.19;99748.00;5047434;28;20021;-71
2021/11/29 07:42:59;;;;;;;8.57;3.47;;;;;;;-5.94;82.80;99745.75;5047326;28;20014;-72
2021/11/29 07:45:24;;;;;;;4.78;2.83;;;;;;;-6.01;83.10;99732.84;5047156;28;20567;-72
2021/11/29 07:47:50;;;;;;;7.45;3.40;;;;;;;-6.01;82.59;99730.31;5047396;28;20101;-72
2021/11/29 07:50:17;;;;;;;4.13;1.90;;;;;;;-5.98;83.09;99729.56;5062225;28;20085;-72
2021/11/29 07:52:44;;;;;;;5.43;2.60;;;;;;;-5.94;83.30;99733.13;5047287;28;20021;-72
2021/11/29 07:55:11;;;;;;;1.50;1.10;;;;;;;-5.68;83.80;99738.50;5062299;28;20018;-71
2021/11/29 07:57:39;;;;;;;3.70;2.55;;;;;;;-5.40;83.39;99749.94;5047276;28;20028;-72
2021/11/29 08:00:12;;;;;;;5.75;2.85;;;;;;;-5.14;82.55;99727.44;5062431;28;20025;-72
2021/11/29 08:02:37;;;;;;;2.40;1.98;;;;;;;-4.95;81.97;99723.19;5045492;28;20093;-72
2021/11/29 08:05:03;;;;;;;5.93;3.97;;;;;;;-4.75;81.34;99742.66;5061929;28;20029;-72
2021/11/29 08:07:28;;;;;;;3.72;2.28;;;;;;;-4.75;80.93;99737.59;5047005;28;20025;-72
2021/11/29 08:09:54;;;;;;;2.80;2.10;;;;;;;-4.69;80.73;99742.03;5046694;28;20029;-71
2021/11/29 08:12:19;;;;;;;5.85;1.88;;;;;;;-4.71;80.04;99742.78;5045514;28;20017;-71
2021/11/29 08:14:45;;;;;;;4.13;2.15;;;;;;;-4.88;79.85;99753.03;5046729;28;20044;-72
2021/11/29 08:17:10;;;;;;;4.38;2.28;;;;;;;-4.99;79.95;99740.78;5046747;28;20036;-73
2021/11/29 08:19:35;;;;;;;3.92;1.98;;;;;;;-4.97;80.29;99754.34;5046353;28;20029;-72
2021/11/29 08:22:01;;;;;;;2.92;2.00;;;;;;;-4.99;80.43;99738.25;5046690;28;20025;-73
2021/11/29 08:24:26;;;;;;;4.38;2.30;;;;;;;-4.81;80.36;99738.97;5045088;28;20501;-71
2021/11/29 08:26:52;;;;;;;5.38;2.80;;;;;;;-4.66;80.23;99744.69;5046557;28;20081;-72
2021/11/29 08:29:26;;;;;;;3.55;2.03;;;;;;;-4.32;79.68;99759.59;5046443;28;20101;-72
2021/11/29 08:31:51;;;;;;;3.38;2.30;;;;;;;-4.34;79.23;99744.31;5046636;28;20030;-72
2021/11/29 08:34:18;;;;;;;3.70;1.90;;;;;;;-4.25;78.58;99764.97;5046321;28;20040;-72
2021/11/29 08:36:44;;;;;;;3.92;2.60;;;;;;;-4.31;78.59;99763.88;5044947;28;20045;-73
2021/11/29 08:39:09;;;;;;;3.50;2.17;;;;;;;-4.33;78.84;99747.72;5045110;28;20056;-72
2021/11/29 08:41:34;;;;;;;3.58;2.22;;;;;;;-3.81;79.08;99768.38;5045016;28;20385;-73
2021/11/29 08:44:03;;;;;;;4.07;2.60;;;;;;;-3.51;78.31;99753.47;5046260;28;20060;-72
2021/11/29 08:46:29;;;;;;;4.57;2.65;;;;;;;-2.95;77.70;99748.69;5046372;28;20018;-72
2021/11/29 08:48:58;;;;;;;4.43;2.58;;;;;;;-2.51;75.93;99746.00;5061726;28;20021;-71
2021/11/29 08:51:23;;;;;;;2.75;2.13;;;;;;;-2.17;75.42;99729.31;5045299;28;20026;-72
2021/11/29 08:53:49;;;;;;;3.72;2.22;;;;;;;-1.88;74.89;99729.38;5044761;28;20566;-72
2021/11/29 08:56:16;;;;;;;4.13;2.50;;;;;;;-1.49;74.57;99755.16;5045984;28;20025;-73
2021/11/29 08:58:43;;;;;;;3.30;2.25;;;;;;;-1.26;73.56;99758.38;5046051;28;20025;-73
2021/11/29 09:01:08;;;;;;;4.53;2.38;;;;;;;-1.07;73.29;99735.97;5061213;28;20025;-72
2021/11/29 09:03:34;;;;;;;5.38;1.70;;;;;;;-0.57;72.32;99756.84;5044308;28;20040;-70
2021/11/29 09:06:00;;;;;;;2.90;1.92;;;;;;;-0.61;70.90;99716.81;5061038;28;20026;-73
2021/11/29 09:08:26;;;;;;;2.60;1.52;;;;;;;-0.50;69.84;99746.00;5045948;28;20025;-72
2021/11/29 09:10:52;;;;;;;3.42;1.92;;;;;;;-0.54;69.33;99744.16;5045827;28;20030;-72
2021/11/29 09:13:19;;;;;;;4.88;2.20;;;;;;;-0.68;69.32;99721.75;5045954;28;20025;-71
2021/11/29 09:15:46;;;;;;;4.88;2.38;;;;;;;-0.51;69.59;99724.72;5045802;28;20021;-73
2021/11/29 09:18:13;;;;;;;3.95;2.00;;;;;;;-0.41;68.99;99755.56;5044327;28;20069;-72
2021/11/29 09:20:39;;;;;;;2.42;1.35;;;;;;;-0.59;68.46;99733.00;5045452;28;20017;-73
2021/11/29 09:23:06;;;;;;;6.00;2.08;;;;;;;-0.98;68.27;99742.16;5060809;28;20013;-73
2021/11/29 09:25:40;;;;;;;1.33;1.23;;;;;;;-1.18;68.80;99776.44;5045196;28;20030;-71
2021/11/29 09:28:05;;;;;;;2.67;1.50;;;;;;;-1.75;68.85;99755.22;5060290;28;20025;-72
2021/11/29 09:30:31;;;;;;;3.65;2.13;;;;;;;-2.07;69.53;99753.38;5045359;28;20036;-72
2021/11/29 09:33:06;;;;;;;4.38;2.03;;;;;;;-2.09;70.36;99747.38;5045147;28;20048;-72
2021/11/29 09:35:31;;;;;;;2.90;1.92;;;;;;;-1.70;70.99;99752.81;5044721;28;20389;-73
2021/11/29 09:37:59;;;;;;;6.82;1.73;;;;;;;-1.15;70.22;99751.03;5043674;28;20084;-73
2021/11/29 09:40:29;;;;;;;3.58;1.90;;;;;;;-0.40;69.32;99752.22;5060311;28;20037;-73
2021/11/29 09:42:55;;;;;;;3.30;1.92;;;;;;;0.34;66.99;99767.56;5045142;28;20041;-71
2021/11/29 09:45:23;;;;;;;3.83;2.00;;;;;;;0.77;65.77;99761.72;5045104;28;20064;-72
2021/11/29 09:47:49;;;;;;;5.28;2.00;;;;;;;1.11;65.08;99744.47;5045300;28;20029;-72
2021/11/29 09:50:16;;;;;;;3.17;2.03;;;;;;;1.74;64.52;99766.97;5043399;28;20037;-72
2021/11/29 09:52:41;;;;;;;3.88;1.55;;;;;;;1.86;62.70;99735.56;5045106;28;20025;-73
2021/11/29 09:55:11;;;;;;;4.68;1.90;;;;;;;2.08;61.33;99761.50;5043521;28;20286;-73
2021/11/29 09:57:41;;;;;;;2.53;1.67;;;;;;;1.86;60.91;99758.63;5044605;28;20044;-72
2021/11/29 10:00:33;;;;;;;2.28;1.60;;;;;;;1.72;61.90;99751.56;5044902;28;20040;-72
2021/11/29 10:02:59;;;;;;;3.63;1.73;;;;;;;1.92;62.35;99766.38;5038438;28;20033;-71
2021/11/29 10:05:26;;;;;;;1.23;1.10;;;;;;;1.61;61.45;99733.44;5044088;28;20370;-69
2021/11/29 10:07:53;;;;;;;1.67;1.50;;;;;;;1.30;61.47;99748.25;5044370;28;20033;-73
2021/11/29 10:10:30;;;;;;;3.05;1.77;;;;;;;1.11;61.79;99755.59;5044398;28;20329;-73
2021/11/29 10:13:03;;;;;;;2.35;1.65;;;;;;;0.70;61.97;99761.53;5044534;28;20035;-74
2021/11/29 10:15:34;;;;;;;2.42;1.77;;;;;;;-0.02;63.76;99726.75;5059796;28;20029;-74
2021/11/29 10:18:11;;;;;;;2.45;1.70;;;;;;;-0.41;64.40;99753.00;5044574;28;20237;-72
2021/11/29 10:20:51;;;;;;;1.75;1.45;;;;;;;-0.94;65.38;99754.19;5044042;28;20085;-71
2021/11/29 10:23:25;;;;;;;2.53;1.48;;;;;;;-1.34;65.74;99748.81;5044300;28;20026;-71
2021/11/29 10:25:51;;;;;;;3.28;1.70;;;;;;;-1.69;66.65;99747.78;5044301;28;20105;-72
2021/11/29 10:28:29;;;;;;;3.67;2.00;;;;;;;-2.00;66.85;99745.13;5045144;28;20025;-71
2021/11/29 10:31:04;;;;;;;2.70;1.90;;;;;;;-2.40;67.29;99752.31;5044397;28;20055;-72
2021/11/29 10:33:30;;;;;;;4.63;2.30;;;;;;;-2.71;68.47;99753.81;5059524;28;20116;-72
2021/11/29 10:36:08;;;;;;;1.90;1.60;;;;;;;-2.91;69.59;99753.97;5059250;28;20091;-72
2021/11/29 10:38:33;;;;;;;3.78;2.20;;;;;;;-3.00;69.63;99749.41;5044311;28;20049;-71
2021/11/29 10:40:59;;;;;;;2.78;1.70;;;;;;;-3.28;70.41;99722.16;5044200;28;20053;-73
2021/11/29 10:43:36;;;;;;;3.33;1.45;;;;;;;-3.27;70.75;99739.97;5059366;28;20013;-71
2021/11/29 10:46:19;;;;;;;2.95;2.00;;;;;;;-3.28;70.74;99743.34;5042667;28;20431;-72
2021/11/29 10:48:45;;;;;;;6.03;2.38;;;;;;;-3.37;70.92;99746.38;5044014;28;20029;-72
2021/11/29 10:51:14;;;;;;;2.97;1.67;;;;;;;-3.38;71.44;99746.31;5043672;28;20053;-73
2021/11/29 10:54:07;;;;;;;2.92;1.42;;;;;;;-3.36;71.07;99734.56;5059191;28;20041;-73
2021/11/29 10:56:35;;;;;;;2.13;1.50;;;;;;;-3.38;71.64;99736.19;5042295;28;20065;-71
2021/11/29 10:59:03;;;;;;;1.88;1.20;;;;;;;-3.34;71.66;99737.16;5043959;28;20022;-72
2021/11/29 11:01:38;;;;;;;3.03;1.90;;;;;;;-3.27;71.15;99737.44;5043819;28;20100;-73
2021/11/29 11:04:07;;;;;;;2.88;2.10;;;;;;;-3.22;70.96;99729.13;5044037;28;20093;-74
2021/11/29 11:06:35;;;;;;;3.10;2.13;;;;;;;-3.00;70.67;99705.34;5043426;28;20143;-73
2021/11/29 11:09:09;;;;;;;2.63;1.50;;;;;;;-2.47;70.27;99724.94;5043819;28;20025;-71
2021/11/29 11:11:44;;;;;;;3.25;1.98;;;;;;;-2.16;69.25;99725.09;5043672;28;20025;-73
2021/11/29 11:14:19;;;;;;;3.63;2.00;;;;;;;-1.75;68.28;99719.59;5043303;28;20025;-72
2021/11/29 11:16:44;;;;;;;2.95;1.52;;;;;;;-1.12;66.49;99714.63;5043729;28;20021;-73
2021/11/29 11:19:21;;;;;;;7.53;1.92;;;;;;;-1.18;65.52;99714.44;5058861;28;20037;-72
2021/11/29 11:21:47;;;;;;;2.47;1.73;;;;;;;-1.96;66.33;99719.78;5043231;28;20080;-72
2021/11/29 11:24:21;;;;;;;7.55;2.92;;;;;;;-2.58;67.89;99716.97;5043433;28;20049;-73
2021/11/29 11:26:48;;;;;;;4.20;2.67;;;;;;;-2.97;69.15;99727.50;5059043;28;20087;-72
2021/11/29 11:29:29;;;;;;;3.38;1.95;;;;;;;-3.38;70.29;99711.66;5043340;28;20113;-72
2021/11/29 11:32:26;;;;;;;3.60;2.58;;;;;;;-3.47;71.10;99720.59;5043267;28;20040;-73